createdAt,value
2022-09-03T00:01:13.807Z,1.27
2022-09-03T00:03:46.012Z,1.40
2022-09-03T00:06:16.879Z,1.50
2022-09-03T00:08:49.224Z,1.10
2022-09-03T00:11:21.899Z,1.20
2022-09-03T00:13:53.912Z,1.43
2022-09-03T00:16:23.943Z,1.00
2022-09-03T00:18:55.333Z,1.50
2022-09-03T00:21:35.825Z,1.13
2022-09-03T00:24:05.825Z,1.20
2022-09-03T00:26:36.970Z,1.23
2022-09-03T00:29:10.483Z,1.10
2022-09-03T00:31:40.366Z,1.33
2022-09-03T00:34:12.676Z,1.20
2022-09-03T00:36:43.314Z,1.03
2022-09-03T00:39:12.627Z,1.00
2022-09-03T00:41:48.623Z,1.20
2022-09-03T00:44:33.134Z,1.20
2022-09-03T00:47:03.697Z,1.10
2022-09-03T00:49:40.728Z,1.10
2022-09-03T00:52:15.359Z,1.00
2022-09-03T00:54:48.034Z,1.17
2022-09-03T00:57:26.371Z,1.10
2022-09-03T01:00:00.684Z,1.07
2022-09-03T01:02:35.297Z,1.03
2022-09-03T01:05:10.661Z,1.17
2022-09-03T01:07:42.869Z,1.20
2022-09-03T01:10:20.134Z,1.20
2022-09-03T01:12:55.830Z,1.30
2022-09-03T01:15:31.325Z,1.10
2022-09-03T01:18:08.735Z,1.20
2022-09-03T01:20:48.096Z,1.10
2022-09-03T01:23:39.392Z,1.10
2022-09-03T01:26:32.659Z,1.10
2022-09-03T01:29:11.865Z,1.40
2022-09-03T01:31:45.755Z,1.23
2022-09-03T01:34:20.568Z,1.00
2022-09-03T01:36:53.881Z,1.20
2022-09-03T01:39:30.103Z,1.10
2022-09-03T01:42:15.769Z,0.90
2022-09-03T01:45:08.803Z,1.30
2022-09-03T01:52:11.122Z,1.30
2022-09-03T01:54:50.408Z,1.00
2022-09-03T01:57:40.557Z,1.03
2022-09-03T02:00:13.974Z,1.00
2022-09-03T02:02:43.337Z,1.10
2022-09-03T02:05:14.182Z,1.00
2022-09-03T02:07:43.642Z,1.20
2022-09-03T02:10:14.470Z,1.10
2022-09-03T02:12:43.574Z,1.10
2022-09-03T02:15:14.647Z,1.10
2022-09-03T02:17:44.257Z,1.00
2022-09-03T02:20:15.007Z,0.83
2022-09-03T02:22:43.991Z,1.10
2022-09-03T02:25:12.285Z,1.10
2022-09-03T02:27:40.095Z,0.97
2022-09-03T02:30:08.992Z,0.93
2022-09-03T02:32:38.475Z,1.23
2022-09-03T02:35:07.210Z,1.00
2022-09-03T02:37:34.890Z,1.10
2022-09-03T02:40:06.276Z,1.13
2022-09-03T02:42:34.185Z,1.10
2022-09-03T02:45:08.406Z,1.00
2022-09-03T02:47:39.198Z,1.10
2022-09-03T02:50:07.885Z,1.03
2022-09-03T02:52:35.520Z,1.27
2022-09-03T02:55:03.239Z,0.90
2022-09-03T02:57:31.391Z,1.17
2022-09-03T02:59:58.993Z,1.00
2022-09-03T03:02:26.764Z,1.30
2022-09-03T03:04:56.565Z,1.07
2022-09-03T03:07:24.289Z,1.20
2022-09-03T03:09:51.962Z,0.97
2022-09-03T03:12:20.281Z,1.10
2022-09-03T03:14:47.974Z,1.43
2022-09-03T03:17:15.682Z,1.00
2022-09-03T03:19:43.450Z,1.20
2022-09-03T03:22:12.436Z,0.93
2022-09-03T03:24:40.076Z,1.00
2022-09-03T03:27:10.676Z,1.10
2022-09-03T03:29:39.493Z,1.10
2022-09-03T03:32:07.231Z,1.10
2022-09-03T03:34:34.919Z,1.63
2022-09-03T03:37:02.630Z,1.10
2022-09-03T03:39:31.940Z,1.20
2022-09-03T03:41:59.601Z,1.10
2022-09-03T03:44:27.337Z,1.10
2022-09-03T03:46:54.985Z,1.03
2022-09-03T03:49:22.783Z,1.27
2022-09-03T03:51:50.442Z,1.00
2022-09-03T03:54:18.094Z,1.20
2022-09-03T03:56:55.540Z,1.20
2022-09-03T03:59:23.725Z,1.17
2022-09-03T04:01:51.411Z,1.17
2022-09-03T04:04:19.108Z,1.20
2022-09-03T04:06:46.970Z,1.20
2022-09-03T04:09:14.695Z,1.20
2022-09-03T04:11:42.354Z,1.10
2022-09-03T04:14:11.688Z,1.20
2022-09-03T04:16:39.478Z,1.20
2022-09-03T04:19:07.288Z,1.10
2022-09-03T04:21:36.697Z,1.40
2022-09-03T04:24:05.962Z,1.07
2022-09-03T04:26:34.984Z,1.13
2022-09-03T04:29:04.800Z,1.10
2022-09-03T04:31:34.881Z,1.00
2022-09-03T04:34:01.880Z,1.20
2022-09-03T04:36:31.367Z,1.30
2022-09-03T04:39:01.589Z,1.20
2022-09-03T04:41:30.959Z,1.17
2022-09-03T04:44:00.223Z,1.20
2022-09-03T04:46:33.425Z,1.00
2022-09-03T04:49:03.556Z,1.10
2022-09-03T04:51:31.973Z,1.00
2022-09-03T04:54:01.285Z,1.20
2022-09-03T04:56:30.785Z,1.10
2022-09-03T04:58:59.801Z,0.97
2022-09-03T05:01:31.213Z,1.23
2022-09-03T05:03:59.303Z,1.47
2022-09-03T05:06:29.219Z,1.23
2022-09-03T05:08:57.707Z,1.50
2022-09-03T05:11:26.560Z,1.30
2022-09-03T05:13:55.888Z,1.20
2022-09-03T05:16:24.522Z,0.90
2022-09-03T05:18:54.400Z,1.20
2022-09-03T05:21:22.468Z,1.47
2022-09-03T05:23:52.817Z,1.27
2022-09-03T05:26:22.392Z,1.53
2022-09-03T05:28:50.102Z,1.20
2022-09-03T05:31:19.172Z,1.20
2022-09-03T05:33:48.376Z,1.20
2022-09-03T05:36:17.478Z,1.20
2022-09-03T05:38:45.651Z,1.20
2022-09-03T05:41:15.657Z,1.07
2022-09-03T05:43:43.846Z,1.20
2022-09-03T05:46:13.207Z,1.10
2022-09-03T05:48:43.052Z,1.20
2022-09-03T05:51:12.757Z,1.13
2022-09-03T05:53:41.433Z,1.10
2022-09-03T05:56:11.778Z,1.10
2022-09-03T05:58:43.530Z,0.97
2022-09-03T06:01:12.809Z,1.10
2022-09-03T06:03:40.718Z,1.30
2022-09-03T06:06:09.069Z,1.20
2022-09-03T06:08:38.327Z,0.90
2022-09-03T06:11:06.950Z,1.10
2022-09-03T06:13:35.529Z,1.40
2022-09-03T06:16:07.668Z,1.30
2022-09-03T06:18:35.450Z,1.17
2022-09-03T06:21:04.569Z,1.20
2022-09-03T06:23:32.912Z,1.10
2022-09-03T06:26:05.289Z,1.20
2022-09-03T06:28:34.807Z,1.00
2022-09-03T06:31:04.210Z,1.47
2022-09-03T06:33:33.119Z,0.90
2022-09-03T06:36:03.786Z,1.10
2022-09-03T06:38:35.769Z,1.30
2022-09-03T06:41:05.937Z,1.17
2022-09-03T06:43:34.876Z,1.10
2022-09-03T06:46:05.464Z,1.20
2022-09-03T06:48:34.554Z,1.20
2022-09-03T06:51:03.834Z,1.20
2022-09-03T06:53:33.515Z,1.00
2022-09-03T06:56:02.850Z,1.13
2022-09-03T06:58:32.070Z,1.00
2022-09-03T07:01:06.787Z,1.00
2022-09-03T07:03:34.774Z,1.00
2022-09-03T07:06:02.813Z,1.20
2022-09-03T07:08:32.803Z,1.30
2022-09-03T07:11:01.319Z,0.93
2022-09-03T07:13:29.360Z,1.10
2022-09-03T07:16:01.970Z,1.07
2022-09-03T07:18:31.531Z,1.20
2022-09-03T07:21:01.098Z,1.40
2022-09-03T07:23:29.667Z,1.10
2022-09-03T07:25:58.450Z,1.07
2022-09-03T07:28:26.387Z,1.00
2022-09-03T07:30:54.511Z,1.07
2022-09-03T07:33:22.629Z,1.10
2022-09-03T07:35:51.750Z,1.10
2022-09-03T07:38:20.103Z,1.20
2022-09-03T07:40:48.133Z,1.37
2022-09-03T07:43:16.698Z,1.20
2022-09-03T07:45:45.737Z,1.40
2022-09-03T07:48:13.434Z,1.10
2022-09-03T07:50:41.234Z,1.20
2022-09-03T07:53:10.555Z,1.20
2022-09-03T07:55:38.200Z,1.10
2022-09-03T07:58:06.030Z,1.10
2022-09-03T08:00:35.625Z,1.03
2022-09-03T08:03:08.597Z,1.20
2022-09-03T08:05:37.382Z,1.20
2022-09-03T08:08:05.043Z,1.10
2022-09-03T08:10:35.778Z,1.30
2022-09-03T08:13:05.512Z,1.20
2022-09-03T08:15:34.020Z,1.10
2022-09-03T08:18:03.624Z,1.00
2022-09-03T08:20:33.584Z,1.10
2022-09-03T08:23:04.479Z,1.40
2022-09-03T08:25:33.127Z,1.23
2022-09-03T08:28:02.804Z,1.30
2022-09-03T08:30:30.947Z,1.13
2022-09-03T08:32:58.598Z,1.13
2022-09-03T08:35:26.455Z,1.07
2022-09-03T08:37:56.761Z,1.70
2022-09-03T08:40:24.910Z,1.30
2022-09-03T08:43:02.670Z,1.27
2022-09-03T08:45:38.197Z,1.30
2022-09-03T08:48:09.369Z,1.40
2022-09-03T08:50:40.104Z,1.20
2022-09-03T08:53:13.534Z,1.30
2022-09-03T08:55:45.558Z,1.27
2022-09-03T08:58:15.730Z,1.10
2022-09-03T09:00:52.956Z,1.20
2022-09-03T09:03:44.878Z,1.13
2022-09-03T09:06:22.906Z,1.20
2022-09-03T09:08:58.360Z,1.17
2022-09-03T09:11:41.075Z,1.30
2022-09-03T09:14:18.673Z,1.50
2022-09-03T09:16:51.925Z,1.40
2022-09-03T09:19:29.945Z,1.10
2022-09-03T09:22:01.576Z,1.50
2022-09-03T09:24:35.758Z,1.33
2022-09-03T09:27:05.915Z,1.33
2022-09-03T09:29:35.158Z,1.40
2022-09-03T09:32:05.652Z,1.40
2022-09-03T09:34:36.947Z,1.37
2022-09-03T09:37:05.784Z,1.67
2022-09-03T09:39:33.497Z,1.77
2022-09-03T09:42:06.042Z,1.43
2022-09-03T09:44:33.938Z,1.43
2022-09-03T09:47:08.778Z,1.50
2022-09-03T09:49:38.496Z,1.47
2022-09-03T09:52:11.534Z,1.60
2022-09-03T09:54:39.982Z,1.60
2022-09-03T09:57:09.440Z,1.83
2022-09-03T09:59:38.172Z,1.63
2022-09-03T10:02:13.811Z,1.60
2022-09-03T10:04:49.982Z,1.47
2022-09-03T10:07:25.320Z,1.70
2022-09-03T10:10:01.003Z,1.40
2022-09-03T10:12:35.686Z,1.50
2022-09-03T10:15:12.960Z,1.60
2022-09-03T10:17:52.608Z,2.03
2022-09-03T10:20:31.202Z,1.90
2022-09-03T10:23:02.570Z,1.40
2022-09-03T10:25:39.035Z,1.77
2022-09-03T10:28:09.191Z,1.53
2022-09-03T10:30:50.107Z,1.70
2022-09-03T10:33:24.289Z,1.90
2022-09-03T10:35:54.770Z,1.80
2022-09-03T10:38:28.595Z,1.67
2022-09-03T10:41:03.759Z,2.13
2022-09-03T10:44:07.389Z,1.93
2022-09-03T10:46:41.773Z,2.27
2022-09-03T10:49:30.880Z,1.77
2022-09-03T10:52:04.446Z,1.63
2022-09-03T10:54:39.142Z,1.90
2022-09-03T10:57:13.177Z,1.87
2022-09-03T10:59:51.614Z,1.80
2022-09-03T11:02:37.337Z,1.53
2022-09-03T11:05:10.155Z,1.37
2022-09-03T11:07:40.917Z,1.50
2022-09-03T11:10:14.946Z,1.50
2022-09-03T11:12:45.519Z,1.73
2022-09-03T11:15:17.263Z,1.70
2022-09-03T11:17:49.220Z,2.20
2022-09-03T11:20:21.559Z,1.73
2022-09-03T11:22:51.926Z,1.50
2022-09-03T11:25:23.782Z,1.57
2022-09-03T11:27:58.333Z,1.70
2022-09-03T11:30:30.675Z,1.80
2022-09-03T11:33:01.558Z,1.40
2022-09-03T11:35:41.678Z,1.70
2022-09-03T11:38:24.588Z,1.60
2022-09-03T11:41:01.222Z,1.60
2022-09-03T11:43:30.063Z,1.70
2022-09-03T11:46:12.366Z,1.37
2022-09-03T11:48:43.840Z,1.70
2022-09-03T11:51:32.204Z,1.73
2022-09-03T11:54:02.037Z,1.60
2022-09-03T11:56:31.002Z,1.70
2022-09-03T11:59:05.983Z,1.60
2022-09-03T12:01:35.342Z,1.77
2022-09-03T12:04:04.780Z,1.57
2022-09-03T12:06:57.530Z,1.50
2022-09-03T12:09:58.916Z,1.80
2022-09-03T12:12:47.400Z,1.73
2022-09-03T12:15:23.315Z,1.90
2022-09-03T12:18:14.093Z,1.43
2022-09-03T12:20:42.311Z,1.80
2022-09-03T12:23:14.869Z,1.97
2022-09-03T12:25:47.332Z,2.07
2022-09-03T12:28:23.450Z,1.93
2022-09-03T12:30:53.166Z,1.80
2022-09-03T12:33:21.839Z,2.80
2022-09-03T12:35:59.902Z,2.80
2022-09-03T12:38:40.664Z,2.10
2022-09-03T12:41:26.974Z,2.20
2022-09-03T12:43:57.330Z,2.27
2022-09-03T12:46:33.546Z,2.10
2022-09-03T12:51:56.964Z,1.80
2022-09-03T12:54:28.609Z,2.40
2022-09-03T12:56:58.328Z,2.23
2022-09-03T12:59:27.112Z,2.30
2022-09-03T13:01:57.417Z,2.20
2022-09-03T13:04:27.889Z,2.00
2022-09-03T13:06:58.121Z,2.10
2022-09-03T13:09:29.906Z,2.33
2022-09-03T13:11:59.089Z,2.30
2022-09-03T13:14:28.526Z,2.20
2022-09-03T13:17:15.891Z,2.33
2022-09-03T13:19:51.749Z,1.90
2022-09-03T13:22:25.398Z,1.87
2022-09-03T13:25:06.586Z,2.00
2022-09-03T13:27:39.505Z,2.23
2022-09-03T13:30:10.931Z,2.17
2022-09-03T13:32:47.030Z,1.90
2022-09-03T13:35:20.789Z,1.93
2022-09-03T13:37:54.086Z,1.90
2022-09-03T13:40:27.354Z,2.17
2022-09-03T13:42:56.947Z,2.10
2022-09-03T13:45:31.393Z,2.30
2022-09-03T13:48:20.637Z,2.20
2022-09-03T13:50:57.790Z,2.20
2022-09-03T13:53:36.919Z,2.30
2022-09-03T13:56:09.921Z,1.97
2022-09-03T13:58:44.887Z,1.63
2022-09-03T14:01:20.356Z,1.90
2022-09-03T14:03:50.814Z,1.90
2022-09-03T14:06:27.432Z,1.90
2022-09-03T14:09:07.598Z,1.50
2022-09-03T14:11:50.369Z,1.67
2022-09-03T14:14:25.855Z,1.90
2022-09-03T14:16:57.504Z,2.00
2022-09-03T14:19:34.161Z,2.07
2022-09-03T14:22:07.830Z,2.37
2022-09-03T14:24:45.365Z,2.17
2022-09-03T14:27:14.888Z,1.70
2022-09-03T14:29:52.428Z,2.00
2022-09-03T14:32:30.641Z,1.83
2022-09-03T14:35:20.825Z,1.90
2022-09-03T14:38:09.654Z,1.90
2022-09-03T14:40:43.854Z,2.00
2022-09-03T14:43:26.341Z,2.03
2022-09-03T14:46:05.741Z,2.13
2022-09-03T14:48:59.798Z,1.90
2022-09-03T14:51:35.274Z,1.73
2022-09-03T14:54:16.995Z,2.10
2022-09-03T14:56:51.334Z,1.90
2022-09-03T14:59:39.072Z,1.90
2022-09-03T15:02:34.650Z,1.83
2022-09-03T15:05:12.242Z,2.00
2022-09-03T15:07:44.133Z,1.70
2022-09-03T15:10:19.241Z,1.90
2022-09-03T15:12:50.179Z,2.00
2022-09-03T15:15:22.879Z,2.10
2022-09-03T15:17:58.994Z,2.23
2022-09-03T15:20:35.570Z,1.90
2022-09-03T15:23:35.977Z,2.10
2022-09-03T15:26:29.713Z,1.83
2022-09-03T15:29:12.472Z,1.97
2022-09-03T15:31:49.311Z,2.20
2022-09-03T15:34:37.341Z,2.30
2022-09-03T15:37:12.831Z,1.93
2022-09-03T15:39:44.325Z,2.03
2022-09-03T15:42:16.831Z,2.33
2022-09-03T15:44:48.255Z,1.87
2022-09-03T15:47:51.427Z,2.00
2022-09-03T15:50:31.298Z,1.90
2022-09-03T15:53:04.911Z,1.80
2022-09-03T15:55:37.077Z,1.87
2022-09-03T15:58:11.831Z,2.20
2022-09-03T16:00:57.129Z,2.07
2022-09-03T16:03:36.132Z,2.10
2022-09-03T16:06:06.045Z,2.07
2022-09-03T16:08:41.248Z,1.97
2022-09-03T16:11:12.195Z,2.20
2022-09-03T16:13:54.465Z,2.17
2022-09-03T16:16:26.471Z,2.10
2022-09-03T16:19:00.971Z,2.07
2022-09-03T16:21:34.230Z,2.03
2022-09-03T16:24:05.345Z,2.10
2022-09-03T16:26:36.150Z,2.30
2022-09-03T16:29:08.957Z,2.70
2022-09-03T16:31:46.417Z,2.63
2022-09-03T16:34:23.042Z,2.03
2022-09-03T16:36:55.305Z,2.40
2022-09-03T16:39:32.594Z,2.50
2022-09-03T16:42:08.302Z,2.40
2022-09-03T16:44:46.239Z,2.30
2022-09-03T16:47:22.280Z,2.30
2022-09-03T16:49:59.761Z,2.20
2022-09-03T16:52:38.547Z,2.70
2022-09-03T16:55:16.386Z,2.47
2022-09-03T16:58:00.058Z,2.50
2022-09-03T17:00:30.052Z,2.50
2022-09-03T17:03:32.801Z,3.00
2022-09-03T17:06:42.098Z,2.70
2022-09-03T17:09:21.174Z,2.30
2022-09-03T17:12:00.770Z,2.50
2022-09-03T17:14:44.088Z,2.90
2022-09-03T17:17:24.438Z,2.50
2022-09-03T17:19:55.275Z,3.63
2022-09-03T17:22:35.214Z,2.80
2022-09-03T17:25:07.257Z,2.53
2022-09-03T17:27:50.535Z,2.40
2022-09-03T17:30:23.343Z,2.40
2022-09-03T17:33:34.234Z,2.80
2022-09-03T17:36:10.533Z,2.23
2022-09-03T17:39:06.725Z,2.30
2022-09-03T17:41:43.770Z,2.10
2022-09-03T17:44:18.619Z,2.10
2022-09-03T17:46:48.851Z,2.40
2022-09-03T17:49:22.731Z,1.87
2022-09-03T17:51:52.328Z,2.00
2022-09-03T17:54:29.601Z,2.10
2022-09-03T17:57:04.434Z,2.40
2022-09-03T17:59:37.894Z,2.33
2022-09-03T18:02:10.420Z,2.17
2022-09-03T18:04:45.857Z,2.40
2022-09-03T18:07:21.121Z,2.10
2022-09-03T18:09:55.807Z,2.00
2022-09-03T18:12:34.525Z,2.00
2022-09-03T18:15:08.926Z,2.33
2022-09-03T18:17:40.898Z,2.00
2022-09-03T18:20:27.749Z,2.00
2022-09-03T18:23:18.791Z,2.13
2022-09-03T18:26:07.006Z,2.50
2022-09-03T18:28:58.230Z,2.37
2022-09-03T18:31:43.216Z,2.70
2022-09-03T18:34:28.872Z,2.20
2022-09-03T18:37:16.539Z,2.67
2022-09-03T18:40:05.164Z,2.60
2022-09-03T18:43:02.430Z,2.73
2022-09-03T18:46:34.620Z,3.00
2022-09-03T18:49:07.218Z,2.53
2022-09-03T18:51:59.495Z,2.40
2022-09-03T18:55:07.288Z,2.80
2022-09-03T18:57:59.853Z,2.53
2022-09-03T19:00:46.599Z,2.40
2022-09-03T19:03:50.830Z,2.53
2022-09-03T19:06:41.858Z,2.67
2022-09-03T19:09:33.169Z,2.37
2022-09-03T19:12:29.679Z,2.40
2022-09-03T19:15:18.414Z,2.67
2022-09-03T19:18:30.234Z,2.30
2022-09-03T19:21:23.590Z,2.37
2022-09-03T19:24:10.198Z,2.30
2022-09-03T19:27:02.991Z,2.47
2022-09-03T19:30:00.349Z,2.10
2022-09-03T19:32:53.849Z,2.40
2022-09-03T19:35:41.961Z,2.33
2022-09-03T19:38:35.078Z,2.00
2022-09-03T19:41:27.028Z,1.93
2022-09-03T19:44:22.436Z,2.10
2022-09-03T19:47:09.543Z,2.17
2022-09-03T19:50:06.253Z,2.20
2022-09-03T19:52:57.695Z,2.50
2022-09-03T19:55:46.413Z,2.30
2022-09-03T19:58:43.201Z,2.40
2022-09-03T20:01:29.967Z,2.50
2022-09-03T20:04:18.373Z,2.17
2022-09-03T20:07:04.655Z,2.50
2022-09-03T20:09:53.810Z,2.50
2022-09-03T20:12:25.278Z,2.40
2022-09-03T20:14:52.892Z,2.50
2022-09-03T20:17:27.654Z,2.60
2022-09-03T20:20:07.754Z,2.50
2022-09-03T20:22:40.265Z,2.23
2022-09-03T20:25:26.790Z,2.60
2022-09-03T20:27:59.118Z,2.80
2022-09-03T20:30:31.180Z,2.67
2022-09-03T20:33:07.994Z,2.60
2022-09-03T20:35:47.919Z,2.50
2022-09-03T20:38:44.502Z,2.60
2022-09-03T20:41:18.826Z,2.67
2022-09-03T20:44:01.283Z,2.67
2022-09-03T20:46:41.178Z,2.20
2022-09-03T20:49:14.473Z,2.50
2022-09-03T20:51:47.711Z,2.63
2022-09-03T20:54:22.480Z,2.87
2022-09-03T20:57:16.735Z,2.17
2022-09-03T20:59:59.288Z,2.60
2022-09-03T21:02:35.117Z,2.93
2022-09-03T21:05:08.747Z,2.27
2022-09-03T21:07:46.743Z,2.33
2022-09-03T21:10:19.946Z,2.90
2022-09-03T21:12:53.378Z,2.87
2022-09-03T21:15:28.838Z,2.50
2022-09-03T21:18:01.493Z,2.30
2022-09-03T21:20:37.613Z,2.30
2022-09-03T21:23:13.383Z,2.30
2022-09-03T21:25:43.118Z,2.63
2022-09-03T21:28:15.111Z,2.40
2022-09-03T21:30:48.251Z,2.47
2022-09-03T21:33:21.234Z,2.47
2022-09-03T21:35:52.626Z,2.17
2022-09-03T21:38:23.369Z,2.30
2022-09-03T21:40:56.294Z,2.13
2022-09-03T21:43:28.254Z,2.60
2022-09-03T21:46:00.976Z,2.27
2022-09-03T21:48:35.663Z,2.20
2022-09-03T21:51:06.694Z,2.20
2022-09-03T21:53:39.136Z,2.53
2022-09-03T21:56:25.438Z,2.63
2022-09-03T21:59:09.207Z,2.80
2022-09-03T22:01:49.206Z,2.40
2022-09-03T22:04:17.344Z,2.30
2022-09-03T22:06:52.565Z,2.37
2022-09-03T22:09:26.326Z,2.57
2022-09-03T22:11:59.555Z,2.60
2022-09-03T22:14:31.495Z,2.50
2022-09-03T22:17:05.284Z,2.70
2022-09-03T22:19:38.349Z,2.50
2022-09-03T22:22:10.994Z,2.63
2022-09-03T22:24:44.082Z,2.50
2022-09-03T22:27:22.269Z,3.00
2022-09-03T22:29:57.569Z,3.00
2022-09-03T22:32:33.618Z,2.60
2022-09-03T22:35:21.991Z,2.47
2022-09-03T22:38:01.597Z,2.63
2022-09-03T22:40:36.256Z,2.60
2022-09-03T22:43:31.059Z,2.70
2022-09-03T22:46:06.001Z,2.53
2022-09-03T22:48:48.428Z,3.00
2022-09-03T22:51:21.480Z,3.00
2022-09-03T22:54:01.358Z,2.80
2022-09-03T22:56:32.116Z,2.50
2022-09-03T22:59:03.521Z,3.00
2022-09-03T23:01:36.236Z,3.00
2022-09-03T23:04:12.186Z,3.00
2022-09-03T23:06:43.896Z,3.10
2022-09-03T23:09:15.839Z,3.97
2022-09-03T23:11:46.277Z,3.10
2022-09-03T23:14:17.615Z,3.57
2022-09-03T23:16:51.045Z,3.07
2022-09-03T23:21:54.674Z,2.63
2022-09-03T23:24:28.318Z,3.07
2022-09-03T23:26:56.246Z,3.37
2022-09-03T23:29:27.245Z,3.10
2022-09-03T23:31:57.494Z,3.17
2022-09-03T23:34:27.220Z,3.00
2022-09-03T23:37:32.471Z,3.03
2022-09-03T23:40:25.806Z,2.80
2022-09-03T23:43:38.373Z,2.90
2022-09-03T23:46:10.482Z,2.90
2022-09-03T23:48:49.710Z,3.00
2022-09-03T23:51:24.009Z,3.20
2022-09-03T23:54:01.529Z,2.80
2022-09-03T23:56:45.574Z,3.00
2022-09-03T23:59:16.413Z,3.37
